sensor_id;sensor_type;location;lat;lon;timestamp;pressure;altitude;pressure_sealevel;temperature;humidity
53932;BME280;39844;52.496;13.482;2023-05-21T00:02:12;101769.13;;;16.11;77.97
53932;BME280;39844;52.496;13.482;2023-05-21T00:04:37;101769.19;;;16.07;78.20
53932;BME280;39844;52.496;13.482;2023-05-21T00:07:02;101770.94;;;16.05;78.45
53932;BME280;39844;52.496;13.482;2023-05-21T00:09:28;101764.81;;;16.01;78.45
53932;BME280;39844;52.496;13.482;2023-05-21T00:11:53;101770.13;;;15.98;78.73
53932;BME280;39844;52.496;13.482;2023-05-21T00:14:18;101766.63;;;15.96;79.18
53932;BME280;39844;52.496;13.482;2023-05-21T00:16:44;101766.66;;;15.93;79.36
53932;BME280;39844;52.496;13.482;2023-05-21T00:19:09;101768.38;;;15.94;79.63
53932;BME280;39844;52.496;13.482;2023-05-21T00:21:34;101760.47;;;15.93;80.15
53932;BME280;39844;52.496;13.482;2023-05-21T00:24:00;101754.28;;;15.92;79.81
53932;BME280;39844;52.496;13.482;2023-05-21T00:26:25;101754.28;;;15.92;79.79
53932;BME280;39844;52.496;13.482;2023-05-21T00:28:50;101753.41;;;15.93;80.17
53932;BME280;39844;52.496;13.482;2023-05-21T00:31:16;101747.22;;;15.93;79.78
53932;BME280;39844;52.496;13.482;2023-05-21T00:33:41;101752.53;;;15.93;80.06
53932;BME280;39844;52.496;13.482;2023-05-21T00:36:07;101749.88;;;15.93;79.69
53932;BME280;39844;52.496;13.482;2023-05-21T00:38:32;101741.97;;;15.91;80.00
53932;BME280;39844;52.496;13.482;2023-05-21T00:41:01;101741.06;;;15.91;80.34
53932;BME280;39844;52.496;13.482;2023-05-21T00:43:26;101739.31;;;15.91;80.18
53932;BME280;39844;52.496;13.482;2023-05-21T00:45:52;101736.66;;;15.91;79.99
53932;BME280;39844;52.496;13.482;2023-05-21T00:48:17;101740.19;;;15.90;80.57
53932;BME280;39844;52.496;13.482;2023-05-21T00:50:42;101737.53;;;15.90;80.41
53932;BME280;39844;52.496;13.482;2023-05-21T00:53:10;101734.03;;;15.88;80.36
53932;BME280;39844;52.496;13.482;2023-05-21T00:55:36;101734.03;;;15.88;80.66
53932;BME280;39844;52.496;13.482;2023-05-21T00:58:01;101732.31;;;15.86;80.92
53932;BME280;39844;52.496;13.482;2023-05-21T01:00:27;101727.88;;;15.85;80.68
53932;BME280;39844;52.496;13.482;2023-05-21T01:02:52;101729.66;;;15.84;81.10
53932;BME280;39844;52.496;13.482;2023-05-21T01:05:18;101726.16;;;15.82;80.88
53932;BME280;39844;52.496;13.482;2023-05-21T01:07:43;101731.44;;;15.82;81.45
53932;BME280;39844;52.496;13.482;2023-05-21T01:10:09;101720.03;;;15.78;81.03
53932;BME280;39844;52.496;13.482;2023-05-21T01:12:37;101722.66;;;15.77;81.54
53932;BME280;39844;52.496;13.482;2023-05-21T01:15:03;101716.53;;;15.73;81.86
53932;BME280;39844;52.496;13.482;2023-05-21T01:17:29;101722.72;;;15.72;81.98
53932;BME280;39844;52.496;13.482;2023-05-21T01:19:56;101719.19;;;15.69;82.20
53932;BME280;39844;52.496;13.482;2023-05-21T01:22:22;101711.28;;;15.67;82.39
53932;BME280;39844;52.496;13.482;2023-05-21T01:24:48;101713.94;;;15.64;82.47
53932;BME280;39844;52.496;13.482;2023-05-21T01:27:14;101724.56;;;15.63;82.95
53932;BME280;39844;52.496;13.482;2023-05-21T01:29:39;101720.19;;;15.60;83.19
53932;BME280;39844;52.496;13.482;2023-05-21T01:32:10;101714.88;;;15.60;83.48
53932;BME280;39844;52.496;13.482;2023-05-21T01:34:54;101722.81;;;15.59;83.43
53932;BME280;39844;52.496;13.482;2023-05-21T01:37:30;101723.72;;;15.56;83.20
53932;BME280;39844;52.496;13.482;2023-05-21T01:40:07;101721.13;;;15.52;84.11
53932;BME280;39844;52.496;13.482;2023-05-21T01:42:35;101728.19;;;15.50;84.42
53932;BME280;39844;52.496;13.482;2023-05-21T01:45:03;101716.75;;;15.48;84.54
53932;BME280;39844;52.496;13.482;2023-05-21T01:47:30;101717.63;;;15.47;84.97
53932;BME280;39844;52.496;13.482;2023-05-21T01:49:56;101714.09;;;15.45;85.34
53932;BME280;39844;52.496;13.482;2023-05-21T01:52:21;101713.22;;;15.46;85.81
53932;BME280;39844;52.496;13.482;2023-05-21T01:54:47;101708.81;;;15.45;85.86
53932;BME280;39844;52.496;13.482;2023-05-21T01:57:12;101710.56;;;15.46;86.13
53932;BME280;39844;52.496;13.482;2023-05-21T01:59:37;101699.13;;;15.42;86.30
53932;BME280;39844;52.496;13.482;2023-05-21T02:02:02;101709.72;;;15.42;86.41
53932;BME280;39844;52.496;13.482;2023-05-21T02:04:28;101700.03;;;15.40;86.65
53932;BME280;39844;52.496;13.482;2023-05-21T02:06:53;101703.53;;;15.39;87.01
53932;BME280;39844;52.496;13.482;2023-05-21T02:09:18;101703.53;;;15.39;86.94
53932;BME280;39844;52.496;13.482;2023-05-21T02:11:44;101703.53;;;15.39;87.59
53932;BME280;39844;52.496;13.482;2023-05-21T02:14:09;101703.53;;;15.39;87.56
53932;BME280;39844;52.496;13.482;2023-05-21T02:16:35;101702.66;;;15.38;87.38
53932;BME280;39844;52.496;13.482;2023-05-21T02:19:00;101701.81;;;15.38;87.61
53932;BME280;39844;52.496;13.482;2023-05-21T02:21:25;101700.91;;;15.36;87.82
53932;BME280;39844;52.496;13.482;2023-05-21T02:23:51;101705.34;;;15.34;88.08
53932;BME280;39844;52.496;13.482;2023-05-21T02:26:16;101695.66;;;15.31;88.20
53932;BME280;39844;52.496;13.482;2023-05-21T02:28:41;101698.34;;;15.30;88.57
53932;BME280;39844;52.496;13.482;2023-05-21T02:31:06;101693.03;;;15.28;88.70
53932;BME280;39844;52.496;13.482;2023-05-21T02:33:32;101697.47;;;15.26;88.85
53932;BME280;39844;52.496;13.482;2023-05-21T02:35:57;101697.50;;;15.25;89.21
53932;BME280;39844;52.496;13.482;2023-05-21T02:38:22;101691.34;;;15.23;89.21
53932;BME280;39844;52.496;13.482;2023-05-21T02:40:48;101705.44;;;15.22;89.86
53932;BME280;39844;52.496;13.482;2023-05-21T02:43:14;101694.88;;;15.18;90.05
53932;BME280;39844;52.496;13.482;2023-05-21T02:45:39;101692.25;;;15.17;90.39
53932;BME280;39844;52.496;13.482;2023-05-21T02:48:05;101699.34;;;15.15;90.53
53932;BME280;39844;52.496;13.482;2023-05-21T02:50:30;101696.69;;;15.13;90.78
53932;BME280;39844;52.496;13.482;2023-05-21T02:52:55;101693.19;;;15.11;90.94
53932;BME280;39844;52.496;13.482;2023-05-21T02:55:20;101688.78;;;15.09;91.16
53932;BME280;39844;52.496;13.482;2023-05-21T02:57:46;101684.41;;;15.06;91.10
53932;BME280;39844;52.496;13.482;2023-05-21T03:00:12;101682.63;;;15.05;91.70
53932;BME280;39844;52.496;13.482;2023-05-21T03:02:38;101677.34;;;15.05;91.67
53932;BME280;39844;52.496;13.482;2023-05-21T03:05:03;101677.34;;;15.05;91.78
53932;BME280;39844;52.496;13.482;2023-05-21T03:07:28;101677.38;;;15.04;92.14
53932;BME280;39844;52.496;13.482;2023-05-21T03:09:54;101680.91;;;15.01;92.56
53932;BME280;39844;52.496;13.482;2023-05-21T03:12:19;101684.44;;;15.02;92.45
53932;BME280;39844;52.496;13.482;2023-05-21T03:14:44;101686.19;;;15.01;92.74
53932;BME280;39844;52.496;13.482;2023-05-21T03:17:10;101673.84;;;15.00;92.51
53932;BME280;39844;52.496;13.482;2023-05-21T03:19:35;101675.63;;;14.98;93.09
53932;BME280;39844;52.496;13.482;2023-05-21T03:22:02;101687.13;;;14.97;92.92
53932;BME280;39844;52.496;13.482;2023-05-21T03:24:28;101678.28;;;14.98;93.84
53932;BME280;39844;52.496;13.482;2023-05-21T03:26:53;101682.69;;;14.98;93.95
53932;BME280;39844;52.496;13.482;2023-05-21T03:29:18;101677.41;;;14.99;93.98
53932;BME280;39844;52.496;13.482;2023-05-21T03:31:44;101677.41;;;14.99;94.10
53932;BME280;39844;52.496;13.482;2023-05-21T03:34:09;101675.63;;;15.01;93.71
53932;BME280;39844;52.496;13.482;2023-05-21T03:36:34;101678.25;;;15.03;94.05
53932;BME280;39844;52.496;13.482;2023-05-21T03:39:00;101676.50;;;15.05;93.99
53932;BME280;39844;52.496;13.482;2023-05-21T03:41:25;101674.72;;;15.07;93.97
53932;BME280;39844;52.496;13.482;2023-05-21T03:43:50;101675.56;;;15.09;93.99
53932;BME280;39844;52.496;13.482;2023-05-21T03:46:16;101678.19;;;15.12;93.95
53932;BME280;39844;52.496;13.482;2023-05-21T03:48:41;101679.03;;;15.15;93.79
53932;BME280;39844;52.496;13.482;2023-05-21T03:51:06;101684.31;;;15.18;94.17
53932;BME280;39844;52.496;13.482;2023-05-21T03:53:32;101682.53;;;15.20;93.85
53932;BME280;39844;52.496;13.482;2023-05-21T03:55:58;101682.50;;;15.24;93.83
53932;BME280;39844;52.496;13.482;2023-05-21T03:58:23;101678.09;;;15.27;93.39
53932;BME280;39844;52.496;13.482;2023-05-21T04:00:49;101677.19;;;15.30;93.61
53932;BME280;39844;52.496;13.482;2023-05-21T04:03:15;101677.16;;;15.33;92.99
53932;BME280;39844;52.496;13.482;2023-05-21T04:05:41;101681.53;;;15.35;92.93
53932;BME280;39844;52.496;13.482;2023-05-21T04:08:06;101680.66;;;15.38;93.03
53932;BME280;39844;52.496;13.482;2023-05-21T04:10:33;101679.75;;;15.40;92.65
53932;BME280;39844;52.496;13.482;2023-05-21T04:12:58;101669.97;;;15.44;92.67
53932;BME280;39844;52.496;13.482;2023-05-21T04:15:23;101687.66;;;15.48;92.58
53932;BME280;39844;52.496;13.482;2023-05-21T04:17:48;101691.16;;;15.50;92.29
53932;BME280;39844;52.496;13.482;2023-05-21T04:20:14;101691.13;;;15.53;92.32
53932;BME280;39844;52.496;13.482;2023-05-21T04:22:39;101691.09;;;15.57;92.03
53932;BME280;39844;52.496;13.482;2023-05-21T04:25:04;101689.31;;;15.61;91.50
53932;BME280;39844;52.496;13.482;2023-05-21T04:27:30;101700.72;;;15.66;91.47
53932;BME280;39844;52.496;13.482;2023-05-21T04:29:55;101688.31;;;15.69;91.32
53932;BME280;39844;52.496;13.482;2023-05-21T04:32:21;101692.72;;;15.73;91.02
53932;BME280;39844;52.496;13.482;2023-05-21T04:34:46;101699.69;;;15.79;90.91
53932;BME280;39844;52.496;13.482;2023-05-21T04:37:11;101703.16;;;15.84;90.59
53932;BME280;39844;52.496;13.482;2023-05-21T04:39:36;101695.19;;;15.89;90.47
53932;BME280;39844;52.496;13.482;2023-05-21T04:42:02;101696.00;;;15.95;90.21
53932;BME280;39844;52.496;13.482;2023-05-21T04:44:28;101700.38;;;16.01;89.90
53932;BME280;39844;52.496;13.482;2023-05-21T04:46:53;101704.72;;;16.06;89.46
53932;BME280;39844;52.496;13.482;2023-05-21T04:49:19;101698.47;;;16.13;89.50
53932;BME280;39844;52.496;13.482;2023-05-21T04:51:44;101695.75;;;16.19;89.38
53932;BME280;39844;52.496;13.482;2023-05-21T04:54:09;101704.47;;;16.27;88.24
53932;BME280;39844;52.496;13.482;2023-05-21T04:56:35;101700.88;;;16.34;88.25
53932;BME280;39844;52.496;13.482;2023-05-21T04:59:00;101700.75;;;16.43;88.12
53932;BME280;39844;52.496;13.482;2023-05-21T05:01:25;101690.09;;;16.50;87.26
53932;BME280;39844;52.496;13.482;2023-05-21T05:03:51;101692.63;;;16.59;86.80
53932;BME280;39844;52.496;13.482;2023-05-21T05:06:17;101691.66;;;16.66;86.41
53932;BME280;39844;52.496;13.482;2023-05-21T05:08:42;101696.88;;;16.72;86.24
53932;BME280;39844;52.496;13.482;2023-05-21T05:11:08;101691.44;;;16.81;85.94
53932;BME280;39844;52.496;13.482;2023-05-21T05:13:33;101694.88;;;16.89;85.65
53932;BME280;39844;52.496;13.482;2023-05-21T05:15:59;101700.06;;;16.98;84.71
53932;BME280;39844;52.496;13.482;2023-05-21T05:18:24;101696.44;;;17.02;83.60
53932;BME280;39844;52.496;13.482;2023-05-21T05:20:50;101690.19;;;17.08;83.34
53932;BME280;39844;52.496;13.482;2023-05-21T05:23:15;101698.91;;;17.16;83.65
53932;BME280;39844;52.496;13.482;2023-05-21T05:25:40;101707.63;;;17.24;83.01
53932;BME280;39844;52.496;13.482;2023-05-21T05:28:06;101702.19;;;17.30;82.80
53932;BME280;39844;52.496;13.482;2023-05-21T05:30:31;101700.34;;;17.35;81.32
53932;BME280;39844;52.496;13.482;2023-05-21T05:32:56;101699.38;;;17.40;81.11
53932;BME280;39844;52.496;13.482;2023-05-21T05:35:22;101699.28;;;17.46;81.14
53932;BME280;39844;52.496;13.482;2023-05-21T05:37:47;101692.13;;;17.51;80.73
53932;BME280;39844;52.496;13.482;2023-05-21T05:40:12;101696.47;;;17.57;80.14
53932;BME280;39844;52.496;13.482;2023-05-21T05:42:38;101696.38;;;17.63;79.85
53932;BME280;39844;52.496;13.482;2023-05-21T05:45:03;101704.25;;;17.67;79.15
53932;BME280;39844;52.496;13.482;2023-05-21T05:47:29;101702.38;;;17.73;78.41
53932;BME280;39844;52.496;13.482;2023-05-21T05:49:54;101700.53;;;17.78;78.32
53932;BME280;39844;52.496;13.482;2023-05-21T05:52:19;101699.50;;;17.86;78.24
53932;BME280;39844;52.496;13.482;2023-05-21T05:54:44;101695.84;;;17.92;77.83
53932;BME280;39844;52.496;13.482;2023-05-21T05:57:10;101695.66;;;18.01;77.64
53932;BME280;39844;52.496;13.482;2023-05-21T05:59:35;101694.63;;;18.08;76.40
53932;BME280;39844;52.496;13.482;2023-05-21T06:02:00;101696.34;;;18.12;76.64
53932;BME280;39844;52.496;13.482;2023-05-21T06:04:26;101690.91;;;18.18;75.91
53932;BME280;39844;52.496;13.482;2023-05-21T06:06:51;101688.97;;;18.26;75.84
53932;BME280;39844;52.496;13.482;2023-05-21T06:09:16;101687.09;;;18.31;75.58
53932;BME280;39844;52.496;13.482;2023-05-21T06:11:42;101678.03;;;18.41;75.14
53932;BME280;39844;52.496;13.482;2023-05-21T06:14:07;101682.38;;;18.48;74.88
53932;BME280;39844;52.496;13.482;2023-05-21T06:16:32;101687.47;;;18.57;74.40
53932;BME280;39844;52.496;13.482;2023-05-21T06:18:58;101685.53;;;18.64;73.40
53932;BME280;39844;52.496;13.482;2023-05-21T06:21:23;101682.72;;;18.71;73.27
53932;BME280;39844;52.496;13.482;2023-05-21T06:23:48;101680.00;;;18.74;72.88
53932;BME280;39844;52.496;13.482;2023-05-21T06:26:14;101683.47;;;18.76;72.41
53932;BME280;39844;52.496;13.482;2023-05-21T06:28:39;101677.22;;;18.80;72.46
53932;BME280;39844;52.496;13.482;2023-05-21T06:31:04;101685.00;;;18.88;73.22
53932;BME280;39844;52.496;13.482;2023-05-21T06:33:29;101682.25;;;18.92;71.72
53932;BME280;39844;52.496;13.482;2023-05-21T06:35:55;101686.66;;;18.93;71.25
53932;BME280;39844;52.496;13.482;2023-05-21T06:38:20;101675.03;;;18.98;71.99
53932;BME280;39844;52.496;13.482;2023-05-21T06:40:45;101679.38;;;19.02;71.27
53932;BME280;39844;52.496;13.482;2023-05-21T06:43:11;101672.31;;;19.01;70.70
53932;BME280;39844;52.496;13.482;2023-05-21T06:45:36;101673.06;;;19.06;71.41
53932;BME280;39844;52.496;13.482;2023-05-21T06:48:01;101673.78;;;19.12;71.53
53932;BME280;39844;52.496;13.482;2023-05-21T06:50:26;101665.78;;;19.14;70.63
53932;BME280;39844;52.496;13.482;2023-05-21T06:52:52;101673.66;;;19.18;70.57
53932;BME280;39844;52.496;13.482;2023-05-21T06:55:17;101663.88;;;19.19;70.35
53932;BME280;39844;52.496;13.482;2023-05-21T06:57:45;101674.47;;;19.22;70.50
53932;BME280;39844;52.496;13.482;2023-05-21T07:00:10;101668.13;;;19.26;70.14
53932;BME280;39844;52.496;13.482;2023-05-21T07:02:36;101674.28;;;19.29;70.00
53932;BME280;39844;52.496;13.482;2023-05-21T07:05:01;101670.66;;;19.32;70.35
53932;BME280;39844;52.496;13.482;2023-05-21T07:07:26;101668.78;;;19.37;70.51
53932;BME280;39844;52.496;13.482;2023-05-21T07:09:52;101676.66;;;19.41;70.20
53932;BME280;39844;52.496;13.482;2023-05-21T07:12:17;101682.75;;;19.46;69.87
53932;BME280;39844;52.496;13.482;2023-05-21T07:14:42;101675.38;;;19.56;69.73
53932;BME280;39844;52.496;13.482;2023-05-21T07:17:08;101676.91;;;19.66;70.33
53932;BME280;39844;52.496;13.482;2023-05-21T07:19:33;101671.28;;;19.77;69.77
53932;BME280;39844;52.496;13.482;2023-05-21T07:21:58;101670.28;;;19.81;68.87
53932;BME280;39844;52.496;13.482;2023-05-21T07:24:23;101666.63;;;19.85;67.77
53932;BME280;39844;52.496;13.482;2023-05-21T07:26:49;101669.16;;;19.89;67.42
53932;BME280;39844;52.496;13.482;2023-05-21T07:29:14;101676.00;;;19.99;67.75
53932;BME280;39844;52.496;13.482;2023-05-21T07:31:39;101668.66;;;20.07;67.56
53932;BME280;39844;52.496;13.482;2023-05-21T07:34:05;101664.97;;;20.11;67.14
53932;BME280;39844;52.496;13.482;2023-05-21T07:36:30;101665.63;;;20.21;67.20
53932;BME280;39844;52.496;13.482;2023-05-21T07:38:55;101654.84;;;20.26;65.92
53932;BME280;39844;52.496;13.482;2023-05-21T07:41:21;101653.75;;;20.33;65.94
53932;BME280;39844;52.496;13.482;2023-05-21T07:43:46;101661.53;;;20.40;66.26
53932;BME280;39844;52.496;13.482;2023-05-21T07:46:11;101655.06;;;20.47;65.11
53932;BME280;39844;52.496;13.482;2023-05-21T07:48:36;101654.94;;;20.52;64.89
53932;BME280;39844;52.496;13.482;2023-05-21T07:51:02;101654.75;;;20.58;64.58
53932;BME280;39844;52.496;13.482;2023-05-21T07:53:27;101654.50;;;20.67;64.42
53932;BME280;39844;52.496;13.482;2023-05-21T07:55:52;101653.38;;;20.74;64.48
53932;BME280;39844;52.496;13.482;2023-05-21T07:58:18;101653.91;;;20.85;64.42
53932;BME280;39844;52.496;13.482;2023-05-21T08:00:45;101643.72;;;20.98;63.54
53932;BME280;39844;52.496;13.482;2023-05-21T08:03:13;101647.94;;;21.05;63.01
53932;BME280;39844;52.496;13.482;2023-05-21T08:05:38;101646.88;;;21.10;62.55
53932;BME280;39844;52.496;13.482;2023-05-21T08:08:03;101648.31;;;21.20;62.64
53932;BME280;39844;52.496;13.482;2023-05-21T08:10:29;101642.91;;;21.23;62.20
53932;BME280;39844;52.496;13.482;2023-05-21T08:12:54;101647.13;;;21.30;62.72
53932;BME280;39844;52.496;13.482;2023-05-21T08:15:20;101644.13;;;21.39;62.89
53932;BME280;39844;52.496;13.482;2023-05-21T08:17:45;101637.56;;;21.50;61.64
53932;BME280;39844;52.496;13.482;2023-05-21T08:20:11;101651.56;;;21.56;61.04
53932;BME280;39844;52.496;13.482;2023-05-21T08:22:36;101642.25;;;21.68;60.22
53932;BME280;39844;52.496;13.482;2023-05-21T08:25:01;101641.22;;;21.72;59.15
53932;BME280;39844;52.496;13.482;2023-05-21T08:30:29;101640.44;;;21.94;59.71
53932;BME280;39844;52.496;13.482;2023-05-21T08:32:55;101640.81;;;22.09;59.29
53932;BME280;39844;52.496;13.482;2023-05-21T08:35:20;101638.78;;;22.15;58.33
53932;BME280;39844;52.496;13.482;2023-05-21T08:37:45;101635.81;;;22.23;58.23
53932;BME280;39844;52.496;13.482;2023-05-21T08:40:11;101642.75;;;22.28;57.50
53932;BME280;39844;52.496;13.482;2023-05-21T08:42:46;101633.50;;;22.37;57.68
53932;BME280;39844;52.496;13.482;2023-05-21T08:45:12;101641.13;;;22.47;57.60
53932;BME280;39844;52.496;13.482;2023-05-21T08:47:41;101634.72;;;22.51;56.28
53932;BME280;39844;52.496;13.482;2023-05-21T08:50:08;101634.50;;;22.57;56.20
53932;BME280;39844;52.496;13.482;2023-05-21T08:52:34;101638.72;;;22.63;56.26
53932;BME280;39844;52.496;13.482;2023-05-21T08:55:02;101638.19;;;22.77;56.29
53932;BME280;39844;52.496;13.482;2023-05-21T08:57:29;101645.84;;;22.86;55.52
53932;BME280;39844;52.496;13.482;2023-05-21T08:59:55;101641.94;;;22.94;55.06
53932;BME280;39844;52.496;13.482;2023-05-21T09:02:20;101632.72;;;23.01;54.40
53932;BME280;39844;52.496;13.482;2023-05-21T09:04:46;101641.13;;;23.14;55.04
53932;BME280;39844;52.496;13.482;2023-05-21T09:07:14;101635.44;;;23.21;54.51
53932;BME280;39844;52.496;13.482;2023-05-21T09:12:19;101635.47;;;23.43;53.16
53932;BME280;39844;52.496;13.482;2023-05-21T09:14:46;101634.59;;;23.43;52.62
53932;BME280;39844;52.496;13.482;2023-05-21T09:17:12;101631.72;;;23.47;52.70
53932;BME280;39844;52.496;13.482;2023-05-21T09:19:38;101635.06;;;23.52;53.26
53932;BME280;39844;52.496;13.482;2023-05-21T09:22:23;101632.47;;;23.71;53.43
53932;BME280;39844;52.496;13.482;2023-05-21T09:24:50;101624.66;;;23.85;52.40
53932;BME280;39844;52.496;13.482;2023-05-21T09:27:17;101624.06;;;23.99;52.51
53932;BME280;39844;52.496;13.482;2023-05-21T09:29:42;101620.06;;;24.09;51.94
53932;BME280;39844;52.496;13.482;2023-05-21T09:32:08;101619.66;;;24.18;51.16
53932;BME280;39844;52.496;13.482;2023-05-21T09:34:35;101626.34;;;24.28;50.79
53932;BME280;39844;52.496;13.482;2023-05-21T09:37:00;101616.03;;;24.37;49.71
53932;BME280;39844;52.496;13.482;2023-05-21T09:39:28;101618.22;;;24.48;49.40
53932;BME280;39844;52.496;13.482;2023-05-21T09:41:56;101614.16;;;24.58;48.96
53932;BME280;39844;52.496;13.482;2023-05-21T09:44:22;101608.94;;;24.74;48.52
53932;BME280;39844;52.496;13.482;2023-05-21T09:46:48;101621.81;;;25.03;48.59
53932;BME280;39844;52.496;13.482;2023-05-21T09:49:22;101611.13;;;25.37;47.25
53932;BME280;39844;52.496;13.482;2023-05-21T09:51:47;101606.94;;;25.66;46.96
53932;BME280;39844;52.496;13.482;2023-05-21T09:54:12;101612.13;;;26.03;46.42
53932;BME280;39844;52.496;13.482;2023-05-21T09:56:38;101610.66;;;26.30;45.14
53932;BME280;39844;52.496;13.482;2023-05-21T09:59:03;101597.38;;;26.59;44.88
53932;BME280;39844;52.496;13.482;2023-05-21T10:01:32;101596.97;;;26.82;43.55
53932;BME280;39844;52.496;13.482;2023-05-21T10:04:00;101589.06;;;26.94;44.68
53932;BME280;39844;52.496;13.482;2023-05-21T10:06:30;101585.81;;;27.04;43.77
53932;BME280;39844;52.496;13.482;2023-05-21T10:08:58;101584.41;;;27.12;42.65
53932;BME280;39844;52.496;13.482;2023-05-21T10:11:30;101585.00;;;27.17;43.96
53932;BME280;39844;52.496;13.482;2023-05-21T10:16:27;101575.59;;;27.38;42.57
53932;BME280;39844;52.496;13.482;2023-05-21T10:18:53;101576.56;;;27.53;42.82
53932;BME280;39844;52.496;13.482;2023-05-21T10:21:22;101566.78;;;27.80;41.71
53932;BME280;39844;52.496;13.482;2023-05-21T10:23:48;101557.59;;;27.97;41.50
53932;BME280;39844;52.496;13.482;2023-05-21T10:26:14;101561.59;;;28.19;41.17
53932;BME280;39844;52.496;13.482;2023-05-21T10:28:40;101569.63;;;28.48;40.28
53932;BME280;39844;52.496;13.482;2023-05-21T10:31:06;101556.25;;;28.87;40.05
53932;BME280;39844;52.496;13.482;2023-05-21T10:33:34;101557.13;;;29.27;40.26
53932;BME280;39844;52.496;13.482;2023-05-21T10:36:00;101548.63;;;29.58;38.75
53932;BME280;39844;52.496;13.482;2023-05-21T10:38:26;101550.38;;;29.72;37.86
53932;BME280;39844;52.496;13.482;2023-05-21T10:40:53;101554.75;;;29.87;38.16
53932;BME280;39844;52.496;13.482;2023-05-21T10:44:02;101542.97;;;30.24;37.55
53932;BME280;39844;52.496;13.482;2023-05-21T10:59:56;101540.28;;;30.37;35.49
53932;BME280;39844;52.496;13.482;2023-05-21T11:02:24;101529.63;;;30.34;34.58
53932;BME280;39844;52.496;13.482;2023-05-21T11:04:58;101523.56;;;30.43;34.63
53932;BME280;39844;52.496;13.482;2023-05-21T11:07:50;101521.28;;;30.37;34.27
53932;BME280;39844;52.496;13.482;2023-05-21T11:10:38;101517.38;;;29.92;34.80
53932;BME280;39844;52.496;13.482;2023-05-21T11:13:07;101517.91;;;29.59;35.02
53932;BME280;39844;52.496;13.482;2023-05-21T11:18:22;101522.66;;;29.16;35.59
53932;BME280;39844;52.496;13.482;2023-05-21T11:20:50;101522.09;;;28.99;35.83
53932;BME280;39844;52.496;13.482;2023-05-21T11:23:17;101519.47;;;28.85;35.97
53932;BME280;39844;52.496;13.482;2023-05-21T11:25:42;101521.56;;;28.67;36.88
53932;BME280;39844;52.496;13.482;2023-05-21T11:28:08;101521.38;;;28.56;36.53
53932;BME280;39844;52.496;13.482;2023-05-21T11:30:33;101523.19;;;28.69;36.48
53932;BME280;39844;52.496;13.482;2023-05-21T11:38:14;101518.53;;;29.75;35.50
53932;BME280;39844;52.496;13.482;2023-05-21T11:40:49;101520.22;;;30.27;35.00
53932;BME280;39844;52.496;13.482;2023-05-21T11:43:15;101516.00;;;30.59;34.18
53932;BME280;39844;52.496;13.482;2023-05-21T11:45:40;101509.72;;;30.82;33.75
53932;BME280;39844;52.496;13.482;2023-05-21T11:48:05;101508.34;;;31.00;32.39
53932;BME280;39844;52.496;13.482;2023-05-21T11:50:31;101517.28;;;31.13;32.35
53932;BME280;39844;52.496;13.482;2023-05-21T11:53:00;101502.56;;;31.51;32.12
53932;BME280;39844;52.496;13.482;2023-05-21T11:55:26;101511.25;;;31.89;31.34
53932;BME280;39844;52.496;13.482;2023-05-21T11:57:52;101502.59;;;31.84;30.80
53932;BME280;39844;52.496;13.482;2023-05-21T12:00:18;101504.59;;;31.93;30.79
53932;BME280;39844;52.496;13.482;2023-05-21T12:02:45;101506.44;;;31.93;30.58
53932;BME280;39844;52.496;13.482;2023-05-21T12:05:11;101488.78;;;31.76;30.18
53932;BME280;39844;52.496;13.482;2023-05-21T12:07:36;101491.25;;;31.68;30.69
53932;BME280;39844;52.496;13.482;2023-05-21T12:10:01;101490.75;;;31.52;30.61
53932;BME280;39844;52.496;13.482;2023-05-21T12:12:27;101485.56;;;31.60;31.95
53932;BME280;39844;52.496;13.482;2023-05-21T12:14:54;101493.22;;;31.66;30.64
53932;BME280;39844;52.496;13.482;2023-05-21T12:17:20;101486.31;;;31.62;30.30
53932;BME280;39844;52.496;13.482;2023-05-21T12:19:47;101485.22;;;31.75;30.66
53932;BME280;39844;52.496;13.482;2023-05-21T12:22:13;101479.28;;;31.70;30.77
53932;BME280;39844;52.496;13.482;2023-05-21T12:24:38;101480.75;;;31.74;30.05
53932;BME280;39844;52.496;13.482;2023-05-21T12:27:06;101488.53;;;31.79;30.15
53932;BME280;39844;52.496;13.482;2023-05-21T12:29:32;101490.28;;;31.80;30.98
53932;BME280;39844;52.496;13.482;2023-05-21T12:31:58;101484.09;;;31.89;29.93
53932;BME280;39844;52.496;13.482;2023-05-21T12:37:06;101487.78;;;31.66;30.06
53932;BME280;39844;52.496;13.482;2023-05-21T12:39:36;101475.88;;;31.34;30.08
53932;BME280;39844;52.496;13.482;2023-05-21T12:42:01;101480.25;;;31.12;30.61
53932;BME280;39844;52.496;13.482;2023-05-21T12:44:29;101484.94;;;31.10;30.91
53932;BME280;39844;52.496;13.482;2023-05-21T12:46:55;101478.56;;;31.22;30.57
53932;BME280;39844;52.496;13.482;2023-05-21T12:49:39;101477.63;;;31.35;30.82
53932;BME280;39844;52.496;13.482;2023-05-21T12:52:09;101487.41;;;31.59;30.35
53932;BME280;39844;52.496;13.482;2023-05-21T12:54:37;101472.22;;;31.79;30.01
53932;BME280;39844;52.496;13.482;2023-05-21T12:59:46;101477.66;;;31.79;29.70
53932;BME280;39844;52.496;13.482;2023-05-21T13:02:14;101475.19;;;31.87;30.25
53932;BME280;39844;52.496;13.482;2023-05-21T13:04:39;101470.50;;;31.89;30.53
53932;BME280;39844;52.496;13.482;2023-05-21T13:07:04;101470.72;;;31.53;30.45
53932;BME280;39844;52.496;13.482;2023-05-21T13:09:30;101469.81;;;31.30;30.68
53932;BME280;39844;52.496;13.482;2023-05-21T13:11:55;101473.81;;;31.02;31.05